createdAt,value
2023-03-11T00:00:32.905Z,2.20
2023-03-11T00:03:01.177Z,2.20
2023-03-11T00:05:30.816Z,2.20
2023-03-11T00:07:57.823Z,2.20
2023-03-11T00:10:32.859Z,2.10
2023-03-11T00:13:00.843Z,2.10
2023-03-11T00:15:29.396Z,2.10
2023-03-11T00:17:57.158Z,2.10
2023-03-11T00:20:27.809Z,2.00
2023-03-11T00:22:54.948Z,2.00
2023-03-11T00:25:23.986Z,2.00
2023-03-11T00:27:51.093Z,2.00
2023-03-11T00:30:19.031Z,2.00
2023-03-11T00:32:48.134Z,2.00
2023-03-11T00:35:19.079Z,2.00
2023-03-11T00:37:47.845Z,2.00
2023-03-11T00:40:19.837Z,2.00
2023-03-11T00:42:46.972Z,2.00
2023-03-11T00:45:14.620Z,2.00
2023-03-11T00:47:41.385Z,2.00
2023-03-11T00:50:09.807Z,2.00
2023-03-11T00:52:36.486Z,2.00
2023-03-11T00:55:03.362Z,2.00
2023-03-11T00:57:30.118Z,2.00
2023-03-11T00:59:56.871Z,2.00
2023-03-11T01:02:23.816Z,2.00
2023-03-11T01:04:55.620Z,2.00
2023-03-11T01:07:23.483Z,2.00
2023-03-11T01:09:50.171Z,2.00
2023-03-11T01:12:16.846Z,2.00
2023-03-11T01:14:43.554Z,2.00
2023-03-11T01:17:10.365Z,2.00
2023-03-11T01:19:37.019Z,2.00
2023-03-11T01:22:03.774Z,2.00
2023-03-11T01:24:30.477Z,2.00
2023-03-11T01:26:57.159Z,2.00
2023-03-11T01:29:23.848Z,2.00
2023-03-11T01:31:50.998Z,2.00
2023-03-11T01:34:17.874Z,2.00
2023-03-11T01:36:44.550Z,2.00
2023-03-11T01:39:11.212Z,2.00
2023-03-11T01:41:38.042Z,2.00
2023-03-11T01:44:05.206Z,1.90
2023-03-11T01:46:59.929Z,1.90
2023-03-11T01:49:26.948Z,1.90
2023-03-11T01:52:07.872Z,1.90
2023-03-11T01:54:39.625Z,1.90
2023-03-11T01:57:10.029Z,1.90
2023-03-11T01:59:40.479Z,1.90
2023-03-11T02:02:14.487Z,1.90
2023-03-11T02:04:42.450Z,1.90
2023-03-11T02:07:11.560Z,1.90
2023-03-11T02:09:38.456Z,1.80
2023-03-11T02:12:07.530Z,1.80
2023-03-11T02:14:35.834Z,1.80
2023-03-11T02:17:02.541Z,1.80
2023-03-11T02:19:38.674Z,1.80
2023-03-11T02:22:05.686Z,1.80
2023-03-11T02:24:49.261Z,1.80
2023-03-11T02:27:18.307Z,1.70
2023-03-11T02:29:49.705Z,1.70
2023-03-11T02:32:18.174Z,1.70
2023-03-11T02:34:45.245Z,1.70
2023-03-11T02:37:14.532Z,1.70
2023-03-11T02:39:44.573Z,1.70
2023-03-11T02:42:17.529Z,1.60
2023-03-11T02:44:47.944Z,1.60
2023-03-11T02:47:14.916Z,1.60
2023-03-11T02:49:41.718Z,1.60
2023-03-11T02:52:08.419Z,1.50
2023-03-11T02:54:35.146Z,1.50
2023-03-11T02:57:01.817Z,1.50
2023-03-11T02:59:28.612Z,1.50
2023-03-11T03:01:55.317Z,1.50
2023-03-11T03:04:22.225Z,1.50
2023-03-11T03:06:50.155Z,1.40
2023-03-11T03:09:16.898Z,1.40
2023-03-11T03:11:43.615Z,1.40
2023-03-11T03:14:10.330Z,1.40
2023-03-11T03:16:37.017Z,1.40
2023-03-11T03:19:04.443Z,1.40
2023-03-11T03:21:31.185Z,1.40
2023-03-11T03:23:57.891Z,1.30
2023-03-11T03:26:24.632Z,1.30
2023-03-11T03:28:51.437Z,1.30
2023-03-11T03:31:18.318Z,1.30
2023-03-11T03:33:45.583Z,1.30
2023-03-11T03:36:14.643Z,1.20
2023-03-11T03:38:41.688Z,1.20
2023-03-11T03:41:08.664Z,1.20
2023-03-11T03:43:35.361Z,1.20
2023-03-11T03:46:04.782Z,1.20
2023-03-11T03:48:32.592Z,1.20
2023-03-11T03:51:04.397Z,1.10
2023-03-11T03:53:31.438Z,1.10
2023-03-11T03:55:58.081Z,1.10
2023-03-11T03:58:24.743Z,1.10
2023-03-11T04:00:56.108Z,1.10
2023-03-11T04:03:23.729Z,1.10
2023-03-11T04:05:50.629Z,1.00
2023-03-11T04:08:17.651Z,1.00
2023-03-11T04:10:44.767Z,1.00
2023-03-11T04:13:11.495Z,1.00
2023-03-11T04:15:39.464Z,0.90
2023-03-11T04:18:06.176Z,0.90
2023-03-11T04:20:32.855Z,0.90
2023-03-11T04:22:59.614Z,0.90
2023-03-11T04:25:26.318Z,0.90
2023-03-11T04:27:52.994Z,0.90
2023-03-11T04:30:19.714Z,0.90
2023-03-11T04:32:46.475Z,0.80
2023-03-11T04:35:13.209Z,0.80
2023-03-11T04:37:40.022Z,0.80
2023-03-11T04:40:07.595Z,0.80
2023-03-11T04:42:34.312Z,0.80
2023-03-11T04:45:01.036Z,0.70
2023-03-11T04:47:27.895Z,0.70
2023-03-11T04:49:56.097Z,0.70
2023-03-11T04:52:23.298Z,0.70
2023-03-11T04:54:49.980Z,0.70
2023-03-11T04:57:16.722Z,0.70
2023-03-11T04:59:43.448Z,0.60
2023-03-11T05:02:12.800Z,0.60
2023-03-11T05:04:39.764Z,0.60
2023-03-11T05:07:06.480Z,0.60
2023-03-11T05:09:35.342Z,0.60
2023-03-11T05:12:02.080Z,0.60
2023-03-11T05:14:28.783Z,0.60
2023-03-11T05:16:55.537Z,0.50
2023-03-11T05:19:31.216Z,0.50
2023-03-11T05:21:59.000Z,0.50
2023-03-11T05:24:26.246Z,0.50
2023-03-11T05:26:52.962Z,0.50
2023-03-11T05:29:20.037Z,0.50
2023-03-11T05:31:47.132Z,0.50
2023-03-11T05:34:15.090Z,0.40
2023-03-11T05:36:41.955Z,0.40
2023-03-11T05:39:08.925Z,0.40
2023-03-11T05:41:35.834Z,0.40
2023-03-11T05:44:03.196Z,0.40
2023-03-11T05:46:30.071Z,0.40
2023-03-11T05:48:56.798Z,0.40
2023-03-11T05:51:23.477Z,0.40
2023-03-11T05:53:50.239Z,0.30
2023-03-11T05:56:22.253Z,0.30
2023-03-11T05:58:49.804Z,0.30
2023-03-11T06:01:18.424Z,0.20
2023-03-11T06:03:45.261Z,0.30
2023-03-11T06:06:14.181Z,0.20
2023-03-11T06:08:45.908Z,0.20
2023-03-11T06:11:12.894Z,0.20
2023-03-11T06:13:39.704Z,0.20
2023-03-11T06:16:07.234Z,0.20
2023-03-11T06:18:34.624Z,0.20
2023-03-11T06:21:02.294Z,0.20
2023-03-11T06:23:29.926Z,0.20
2023-03-11T06:26:01.708Z,0.20
2023-03-11T06:28:29.415Z,0.10
2023-03-11T06:30:56.842Z,0.10
2023-03-11T06:33:24.919Z,0.10
2023-03-11T06:36:02.225Z,0.10
2023-03-11T06:38:29.203Z,0.10
2023-03-11T06:41:03.800Z,0.10
2023-03-11T06:43:31.430Z,0.10
2023-03-11T06:45:58.798Z,0.10
2023-03-11T06:48:26.085Z,0.10
2023-03-11T06:50:56.923Z,0.10
2023-03-11T06:53:24.434Z,0.10
2023-03-11T06:56:07.368Z,0.10
2023-03-11T06:58:36.095Z,0.10
2023-03-11T07:01:12.765Z,0.10
2023-03-11T07:03:39.917Z,0.10
2023-03-11T07:06:10.687Z,0.10
2023-03-11T07:08:37.380Z,0.10
2023-03-11T07:11:10.514Z,0.10
2023-03-11T07:13:37.406Z,0.10
2023-03-11T07:16:10.562Z,0.10
2023-03-11T07:18:37.352Z,0.10
2023-03-11T07:21:05.972Z,0.10
2023-03-11T07:23:33.854Z,0.20
2023-03-11T07:26:00.991Z,0.20
2023-03-11T07:28:29.200Z,0.20
2023-03-11T07:30:56.701Z,0.20
2023-03-11T07:33:24.511Z,0.30
2023-03-11T07:35:52.383Z,0.30
2023-03-11T07:38:19.898Z,0.30
2023-03-11T07:40:47.070Z,0.30
2023-03-11T07:43:13.888Z,0.40
2023-03-11T07:45:40.720Z,0.40
2023-03-11T07:48:07.435Z,0.40
2023-03-11T07:50:34.141Z,0.50
2023-03-11T07:53:00.873Z,0.50
2023-03-11T07:55:27.705Z,0.60
2023-03-11T07:57:54.553Z,0.60
2023-03-11T08:00:21.573Z,0.60
2023-03-11T08:02:48.327Z,0.60
2023-03-11T08:05:15.276Z,0.70
2023-03-11T08:07:42.037Z,0.70
2023-03-11T08:10:09.644Z,0.80
2023-03-11T08:12:36.379Z,0.80
2023-03-11T08:15:03.225Z,0.90
2023-03-11T08:17:29.937Z,0.90
2023-03-11T08:19:56.635Z,1.00
2023-03-11T08:22:23.391Z,1.00
2023-03-11T08:24:53.425Z,1.10
2023-03-11T08:27:20.241Z,1.10
2023-03-11T08:29:46.958Z,1.20
2023-03-11T08:32:13.910Z,1.30
2023-03-11T08:34:40.728Z,1.30
2023-03-11T08:37:07.619Z,1.40
2023-03-11T08:39:34.468Z,1.50
2023-03-11T08:42:01.508Z,1.50
2023-03-11T08:44:28.240Z,1.60
2023-03-11T08:46:55.145Z,1.70
2023-03-11T08:49:21.825Z,1.70
2023-03-11T08:51:48.594Z,1.80
2023-03-11T08:54:15.399Z,1.90
2023-03-11T08:56:42.150Z,2.00
2023-03-11T08:59:08.847Z,2.00
2023-03-11T09:01:35.559Z,2.10
2023-03-11T09:04:02.341Z,2.20
2023-03-11T09:06:30.422Z,2.30
2023-03-11T09:08:57.582Z,2.40
2023-03-11T09:11:24.847Z,2.40
2023-03-11T09:13:51.580Z,2.60
2023-03-11T09:16:22.010Z,2.60
2023-03-11T09:18:48.986Z,2.70
2023-03-11T09:21:15.766Z,2.80
2023-03-11T09:23:44.324Z,2.90
2023-03-11T09:26:11.856Z,3.00
2023-03-11T09:28:38.652Z,3.00
2023-03-11T09:31:05.526Z,3.10
2023-03-11T09:33:36.046Z,3.20
2023-03-11T09:36:02.732Z,3.30
2023-03-11T09:38:29.484Z,3.30
2023-03-11T09:41:13.593Z,3.40
2023-03-11T09:44:05.087Z,3.40
2023-03-11T09:47:10.343Z,3.50
2023-03-11T09:49:50.017Z,3.60
2023-03-11T09:52:24.928Z,3.70
2023-03-11T09:54:53.542Z,3.80
2023-03-11T09:57:25.234Z,3.80
2023-03-11T09:59:52.415Z,3.90
2023-03-11T10:02:22.505Z,3.90
2023-03-11T10:05:07.661Z,4.00
2023-03-11T10:07:41.255Z,4.10
2023-03-11T10:10:14.213Z,4.20
2023-03-11T10:13:15.083Z,4.30
2023-03-11T10:15:52.778Z,4.30
2023-03-11T10:18:30.092Z,4.40
2023-03-11T10:21:12.083Z,4.50
2023-03-11T10:23:57.101Z,4.60
2023-03-11T10:26:32.749Z,4.70
2023-03-11T10:29:11.846Z,4.70
2023-03-11T10:32:05.195Z,4.80
2023-03-11T10:34:59.008Z,4.90
2023-03-11T10:37:48.894Z,5.00
2023-03-11T10:40:30.640Z,5.00
2023-03-11T10:43:04.316Z,5.00
2023-03-11T10:45:38.380Z,5.10
2023-03-11T10:48:13.474Z,5.10
2023-03-11T10:51:12.307Z,5.10
2023-03-11T10:53:52.273Z,5.10
2023-03-11T10:56:31.833Z,5.10
2023-03-11T10:58:59.609Z,5.10
2023-03-11T11:01:28.906Z,5.10
2023-03-11T11:03:58.102Z,5.20
2023-03-11T11:06:31.947Z,5.20
2023-03-11T11:09:06.552Z,5.20
2023-03-11T11:11:38.794Z,5.30
2023-03-11T11:14:06.127Z,5.40
2023-03-11T11:16:35.132Z,5.40
2023-03-11T11:19:09.809Z,5.40
2023-03-11T11:21:40.018Z,5.40
2023-03-11T11:24:20.980Z,5.50
2023-03-11T11:27:11.870Z,5.50
2023-03-11T11:29:38.892Z,5.60
2023-03-11T11:32:20.010Z,5.60
2023-03-11T11:35:06.944Z,5.70
2023-03-11T11:37:36.793Z,5.60
2023-03-11T11:40:11.475Z,5.70
2023-03-11T11:42:40.520Z,5.70
2023-03-11T11:45:23.952Z,5.70
2023-03-11T11:47:55.724Z,5.80
2023-03-11T11:50:52.026Z,5.80
2023-03-11T11:53:43.088Z,5.80
2023-03-11T11:56:09.990Z,5.80
2023-03-11T11:58:36.742Z,5.80
2023-03-11T12:01:08.271Z,5.80
2023-03-11T12:03:58.895Z,5.90
2023-03-11T12:06:41.930Z,5.90
2023-03-11T12:09:38.621Z,5.90
2023-03-11T12:12:27.763Z,5.90
2023-03-11T12:15:16.253Z,5.90
2023-03-11T12:17:46.002Z,5.90
2023-03-11T12:20:28.040Z,5.90
2023-03-11T12:23:24.820Z,5.90
2023-03-11T12:26:12.590Z,5.90
2023-03-11T12:29:00.989Z,5.90
2023-03-11T12:31:34.071Z,6.00
2023-03-11T12:34:04.573Z,6.00
2023-03-11T12:36:37.639Z,6.00
2023-03-11T12:39:19.407Z,6.10
2023-03-11T12:41:46.274Z,6.10
2023-03-11T12:44:21.961Z,6.20
2023-03-11T12:46:55.513Z,6.20
2023-03-11T12:49:35.458Z,6.20
2023-03-11T12:52:14.111Z,6.20
2023-03-11T12:55:01.172Z,6.30
2023-03-11T12:57:31.111Z,6.30
2023-03-11T13:00:18.756Z,6.30
2023-03-11T13:02:51.606Z,6.40
2023-03-11T13:05:23.080Z,6.40
2023-03-11T13:08:00.134Z,6.50
2023-03-11T13:10:45.159Z,6.50
2023-03-11T13:13:31.065Z,6.50
2023-03-11T13:16:18.139Z,6.60
2023-03-11T13:18:47.556Z,6.60
2023-03-11T13:21:32.313Z,6.70
2023-03-11T13:24:27.121Z,6.70
2023-03-11T13:27:00.837Z,6.80
2023-03-11T13:29:45.086Z,6.90
2023-03-11T13:32:43.877Z,6.90
2023-03-11T13:36:01.803Z,7.00
2023-03-11T13:38:43.885Z,7.10
2023-03-11T13:41:31.071Z,7.10
2023-03-11T13:44:10.245Z,7.10
2023-03-11T13:46:40.131Z,7.10
2023-03-11T13:49:28.627Z,7.10
2023-03-11T13:51:56.976Z,7.10
2023-03-11T13:54:30.690Z,7.20
2023-03-11T13:56:59.514Z,7.20
2023-03-11T13:59:35.385Z,7.30
2023-03-11T14:02:07.962Z,7.30
2023-03-11T14:04:38.395Z,7.40
2023-03-11T14:07:15.009Z,7.40
2023-03-11T14:09:41.773Z,7.40
2023-03-11T14:12:09.592Z,7.40
2023-03-11T14:14:56.384Z,7.50
2023-03-11T14:17:23.081Z,7.60
2023-03-11T14:20:19.061Z,7.70
2023-03-11T14:22:48.429Z,7.80
2023-03-11T14:25:23.722Z,7.90
2023-03-11T14:28:01.805Z,8.10
2023-03-11T14:30:30.854Z,8.20
2023-03-11T14:33:06.527Z,8.30
2023-03-11T14:35:34.177Z,8.40
2023-03-11T14:38:01.409Z,8.50
2023-03-11T14:40:34.056Z,8.70
2023-03-11T14:43:04.866Z,8.80
2023-03-11T14:45:42.380Z,8.80
2023-03-11T14:48:29.555Z,8.80
2023-03-11T14:50:58.909Z,8.90
2023-03-11T14:53:41.078Z,9.00
2023-03-11T14:56:16.294Z,9.30
2023-03-11T14:59:12.656Z,9.70
2023-03-11T15:01:41.903Z,10.10
2023-03-11T15:04:11.426Z,10.30
2023-03-11T15:06:43.952Z,10.50
2023-03-11T15:09:19.705Z,10.60
2023-03-11T15:11:52.073Z,10.70
2023-03-11T15:14:23.995Z,10.80
2023-03-11T15:16:52.326Z,10.80
2023-03-11T15:19:28.118Z,10.70
2023-03-11T15:21:59.455Z,10.50
2023-03-11T15:24:32.401Z,10.30
2023-03-11T15:27:06.037Z,10.10
2023-03-11T15:29:34.884Z,10.00
2023-03-11T15:32:35.886Z,10.00
2023-03-11T15:35:10.598Z,9.80
2023-03-11T15:37:38.356Z,9.80
2023-03-11T15:40:19.472Z,9.70
2023-03-11T15:42:47.885Z,9.70
2023-03-11T15:45:20.044Z,9.70
2023-03-11T15:47:48.913Z,9.60
2023-03-11T15:50:40.322Z,9.50
2023-03-11T15:53:13.668Z,9.50
2023-03-11T15:55:40.353Z,9.50
2023-03-11T15:58:09.340Z,9.40
2023-03-11T16:00:37.407Z,9.40
2023-03-11T16:03:04.810Z,9.40
2023-03-11T16:05:31.546Z,9.40
2023-03-11T16:07:58.245Z,9.40
2023-03-11T16:10:25.755Z,9.40
2023-03-11T16:12:52.534Z,9.50
2023-03-11T16:15:24.993Z,9.50
2023-03-11T16:17:53.101Z,9.60
2023-03-11T16:20:22.786Z,9.70
2023-03-11T16:22:51.724Z,9.80
2023-03-11T16:25:26.086Z,9.90
2023-03-11T16:27:54.828Z,10.10
2023-03-11T16:30:26.351Z,10.20
2023-03-11T16:32:53.177Z,10.20
2023-03-11T16:35:20.351Z,10.20
2023-03-11T16:37:47.261Z,10.20
2023-03-11T16:40:17.398Z,10.20
2023-03-11T16:42:44.895Z,10.30
2023-03-11T16:45:13.590Z,10.30
2023-03-11T16:47:40.493Z,10.20
2023-03-11T16:50:08.312Z,10.10
2023-03-11T16:52:35.252Z,10.00
2023-03-11T16:55:02.083Z,9.90
2023-03-11T16:57:28.911Z,9.70
2023-03-11T16:59:55.697Z,9.50
2023-03-11T17:02:24.524Z,9.40
2023-03-11T17:04:51.525Z,9.20
2023-03-11T17:07:18.352Z,9.00
2023-03-11T17:09:45.136Z,8.80
2023-03-11T17:12:15.670Z,8.70
2023-03-11T17:14:42.565Z,8.50
2023-03-11T17:17:09.357Z,8.40
2023-03-11T17:19:36.073Z,8.20
2023-03-11T17:22:02.818Z,8.10
2023-03-11T17:24:30.057Z,8.00
2023-03-11T17:26:56.797Z,7.80
2023-03-11T17:29:23.579Z,7.70
2023-03-11T17:31:50.287Z,7.50
2023-03-11T17:34:17.036Z,7.40
2023-03-11T17:36:43.723Z,7.20
2023-03-11T17:39:10.457Z,7.10
2023-03-11T17:41:37.198Z,7.00
2023-03-11T17:44:04.036Z,6.80
2023-03-11T17:46:31.077Z,6.70
2023-03-11T17:48:57.855Z,6.60
2023-03-11T17:51:26.202Z,6.50
2023-03-11T17:53:56.248Z,6.30
2023-03-11T17:56:23.398Z,6.20
2023-03-11T17:58:50.799Z,6.10
2023-03-11T18:01:23.451Z,6.00
2023-03-11T18:03:50.993Z,5.90
2023-03-11T18:06:19.085Z,5.70
2023-03-11T18:08:45.971Z,5.60
2023-03-11T18:11:18.654Z,5.50
2023-03-11T18:13:46.409Z,5.40
2023-03-11T18:16:18.560Z,5.30
2023-03-11T18:18:46.200Z,5.20
2023-03-11T18:21:21.726Z,5.10
2023-03-11T18:23:49.110Z,5.00
2023-03-11T18:26:18.153Z,4.80
2023-03-11T18:28:45.031Z,4.80
2023-03-11T18:31:17.504Z,4.70
2023-03-11T18:33:48.850Z,4.60
2023-03-11T18:36:20.785Z,4.50
2023-03-11T18:38:48.859Z,4.40
2023-03-11T18:41:16.226Z,4.40
2023-03-11T18:43:43.207Z,4.30
2023-03-11T18:46:13.126Z,4.20
2023-03-11T18:48:40.463Z,4.10
2023-03-11T18:51:08.933Z,4.10
2023-03-11T18:53:36.549Z,4.00
2023-03-11T18:56:10.064Z,4.00
2023-03-11T18:58:36.766Z,3.90
2023-03-11T19:01:15.774Z,3.90
2023-03-11T19:03:44.060Z,3.80
2023-03-11T19:06:12.914Z,3.80
2023-03-11T19:08:40.254Z,3.70
2023-03-11T19:11:12.179Z,3.70
2023-03-11T19:13:46.604Z,3.60
2023-03-11T19:16:15.922Z,3.60
2023-03-11T19:18:42.752Z,3.60
2023-03-11T19:21:12.216Z,3.50
2023-03-11T19:23:39.062Z,3.50
2023-03-11T19:26:06.129Z,3.40
2023-03-11T19:28:32.909Z,3.40
2023-03-11T19:30:59.756Z,3.30
2023-03-11T19:33:26.904Z,3.30
2023-03-11T19:35:58.886Z,3.30
2023-03-11T19:38:26.242Z,3.20
2023-03-11T19:41:00.878Z,3.20
2023-03-11T19:43:28.649Z,3.10
2023-03-11T19:45:56.170Z,3.10
2023-03-11T19:48:23.155Z,3.00
2023-03-11T19:50:53.269Z,3.00
2023-03-11T19:53:21.457Z,3.00
2023-03-11T19:55:51.603Z,2.90
2023-03-11T19:58:18.734Z,2.90
2023-03-11T20:00:45.819Z,2.80
2023-03-11T20:03:13.626Z,2.80
2023-03-11T20:05:43.697Z,2.70
2023-03-11T20:08:13.066Z,2.70
2023-03-11T20:10:45.525Z,2.60
2023-03-11T20:13:13.323Z,2.60
2023-03-11T20:15:40.404Z,2.60
2023-03-11T20:18:07.870Z,2.50
2023-03-11T20:20:34.911Z,2.50
2023-03-11T20:23:02.223Z,2.40
2023-03-11T20:25:32.257Z,2.40
2023-03-11T20:28:00.201Z,2.40
2023-03-11T20:30:27.625Z,2.40
2023-03-11T20:32:54.742Z,2.30
2023-03-11T20:35:22.325Z,2.30
2023-03-11T20:37:49.326Z,2.30
2023-03-11T20:40:17.632Z,2.20
2023-03-11T20:42:46.962Z,2.20
2023-03-11T20:45:17.483Z,2.20
2023-03-11T20:47:44.585Z,2.10
2023-03-11T20:50:14.731Z,2.10
2023-03-11T20:52:41.545Z,2.10
2023-03-11T20:55:10.060Z,2.10
2023-03-11T20:57:38.132Z,2.00
2023-03-11T21:00:11.689Z,2.00
2023-03-11T21:02:40.580Z,2.00
2023-03-11T21:05:09.342Z,2.00
2023-03-11T21:07:36.439Z,2.00
2023-03-11T21:10:06.583Z,1.90
2023-03-11T21:12:33.422Z,1.90
2023-03-11T21:15:00.322Z,1.90
2023-03-11T21:17:27.023Z,1.90
2023-03-11T21:19:53.816Z,1.90
2023-03-11T21:22:20.536Z,1.90
2023-03-11T21:24:52.635Z,1.90
2023-03-11T21:27:26.385Z,1.90
2023-03-11T21:29:54.633Z,1.90
2023-03-11T21:32:22.752Z,1.90
2023-03-11T21:34:49.992Z,1.90
2023-03-11T21:37:17.142Z,1.90
2023-03-11T21:39:44.025Z,1.90
2023-03-11T21:42:10.767Z,1.90
2023-03-11T21:44:37.797Z,1.90
2023-03-11T21:47:04.877Z,1.90
2023-03-11T21:49:31.706Z,1.90
2023-03-11T21:52:00.892Z,1.90
2023-03-11T21:54:28.702Z,1.90
2023-03-11T21:56:55.419Z,2.00
2023-03-11T21:59:25.137Z,1.90
2023-03-11T22:01:52.501Z,2.00
2023-03-11T22:04:19.404Z,2.00
2023-03-11T22:06:46.285Z,1.90
2023-03-11T22:09:13.117Z,2.00
2023-03-11T22:11:40.064Z,2.00
2023-03-11T22:14:07.148Z,2.00
2023-03-11T22:16:34.057Z,2.00
2023-03-11T22:19:00.947Z,2.00
2023-03-11T22:21:27.739Z,1.90
2023-03-11T22:23:54.427Z,2.00
2023-03-11T22:26:21.099Z,2.00
2023-03-11T22:28:47.917Z,2.00
2023-03-11T22:31:15.419Z,2.00
2023-03-11T22:33:42.213Z,1.90
2023-03-11T22:36:09.602Z,1.90
2023-03-11T22:38:38.502Z,1.90
2023-03-11T22:41:07.627Z,1.90
2023-03-11T22:43:35.205Z,1.90
2023-03-11T22:46:02.643Z,1.90
2023-03-11T22:48:29.518Z,1.80
2023-03-11T22:50:56.353Z,1.80
2023-03-11T22:53:24.846Z,1.90
2023-03-11T22:55:52.377Z,1.80
2023-03-11T22:58:19.489Z,1.80
2023-03-11T23:00:46.449Z,1.80
2023-03-11T23:03:13.581Z,1.80
2023-03-11T23:05:43.345Z,1.80
2023-03-11T23:08:13.307Z,1.80
2023-03-11T23:10:41.723Z,1.80
2023-03-11T23:13:09.050Z,1.80
2023-03-11T23:15:36.098Z,1.90
2023-03-11T23:18:02.820Z,1.90
2023-03-11T23:20:29.542Z,1.90
2023-03-11T23:22:56.232Z,1.90
2023-03-11T23:25:23.032Z,1.90
2023-03-11T23:27:49.755Z,2.00
2023-03-11T23:30:17.204Z,2.00
2023-03-11T23:32:45.070Z,2.00
2023-03-11T23:35:12.512Z,2.00
2023-03-11T23:37:39.734Z,2.10
2023-03-11T23:40:07.868Z,2.10
2023-03-11T23:42:35.348Z,2.10
2023-03-11T23:45:02.021Z,2.20
2023-03-11T23:47:29.068Z,2.20
2023-03-11T23:49:55.790Z,2.20
2023-03-11T23:52:22.645Z,2.20
2023-03-11T23:54:49.451Z,2.30
2023-03-11T23:57:16.228Z,2.30
2023-03-11T23:59:43.098Z,2.40
